Time;durP1;ratioP1;P1;durP2;ratioP2;P2;SDS_P1;SDS_P2;PMS_P1;PMS_P2;Temp;Humidity;BMP_temperature;BMP_pressure;BME280_temperature;BME280_humidity;BME280_pressure;Samples;Min_cycle;Max_cycle;Signal;HPM_P1;HPM_P2
2023/05/27 00:01:37;;;;;;;0.10;0.10;;;;;;;;;;5085600;28;20019;-90
2023/05/27 00:04:08;;;;;;;0.30;0.25;;;;;;;;;;5108336;28;20042;-88
2023/05/27 00:06:33;;;;;;;0.00;0.00;;;;;;;;;;5109823;28;20030;-87
2023/05/27 00:08:59;;;;;;;0.30;0.30;;;;;;;;;;5094521;28;20035;-87
2023/05/27 00:11:25;;;;;;;0.30;0.22;;;;;;;;;;5097993;28;20028;-87
2023/05/27 00:13:52;;;;;;;0.00;0.00;;;;;;;;;;5105018;28;20043;-87
2023/05/27 00:16:20;;;;;;;0.00;0.00;;;;;;;;;;5081214;28;20085;-86
2023/05/27 00:18:48;;;;;;;0.08;0.08;;;;;;;;;;5095267;28;20055;-88
2023/05/27 00:21:14;;;;;;;0.43;0.43;;;;;;;;;;5104893;28;20059;-86
2023/05/27 00:23:41;;;;;;;0.25;0.10;;;;;;;;;;5084796;28;20399;-86
2023/05/27 00:26:07;;;;;;;0.43;0.38;;;;;;;;;;5097085;28;20391;-85
2023/05/27 00:28:33;;;;;;;0.80;0.57;;;;;;;;;;5087927;28;20081;-87
2023/05/27 00:31:01;;;;;;;0.00;0.00;;;;;;;;;;5088757;28;20056;-90
2023/05/27 00:33:33;;;;;;;0.00;0.00;;;;;;;;;;5086053;28;20019;-89
2023/05/27 00:35:59;;;;;;;0.17;0.17;;;;;;;;;;5101443;28;20021;-88
2023/05/27 00:38:27;;;;;;;0.50;0.50;;;;;;;;;;5089396;28;20107;-89
2023/05/27 00:40:54;;;;;;;0.00;0.00;;;;;;;;;;5121082;27;20365;-86
2023/05/27 00:43:19;;;;;;;0.20;0.10;;;;;;;;;;5091754;28;20034;-90
2023/05/27 00:45:50;;;;;;;0.13;0.13;;;;;;;;;;5092253;28;20016;-89
2023/05/27 00:48:23;;;;;;;0.00;0.00;;;;;;;;;;5089816;28;20028;-89
2023/05/27 00:50:54;;;;;;;0.00;0.00;;;;;;;;;;5086386;28;20102;-87
2023/05/27 00:53:41;;;;;;;0.00;0.00;;;;;;;;;;5090010;28;20066;-88
2023/05/27 00:56:17;;;;;;;0.00;0.00;;;;;;;;;;5081640;28;20108;-87
2023/05/27 00:58:43;;;;;;;0.00;0.00;;;;;;;;;;5078600;28;20047;-88
2023/05/27 01:01:09;;;;;;;0.08;0.08;;;;;;;;;;5081896;28;20040;-85
2023/05/27 01:03:41;;;;;;;0.00;0.00;;;;;;;;;;5103230;28;20012;-91
2023/05/27 01:06:13;;;;;;;0.00;0.00;;;;;;;;;;5092869;28;20377;-86
2023/05/27 01:09:03;;;;;;;0.00;0.00;;;;;;;;;;5099160;28;20034;-85
2023/05/27 01:11:39;;;;;;;0.00;0.00;;;;;;;;;;5122451;27;20036;-85
2023/05/27 01:14:10;;;;;;;0.00;0.00;;;;;;;;;;5124026;27;20056;-85
2023/05/27 01:16:39;;;;;;;0.00;0.00;;;;;;;;;;5091925;28;20383;-82
2023/05/27 01:19:10;;;;;;;0.00;0.00;;;;;;;;;;5087335;28;20142;-84
2023/05/27 01:21:39;;;;;;;0.00;0.00;;;;;;;;;;5086093;28;20596;-85
2023/05/27 01:24:05;;;;;;;0.00;0.00;;;;;;;;;;5086737;28;20032;-85
2023/05/27 01:26:31;;;;;;;0.00;0.00;;;;;;;;;;5110745;28;20038;-85
2023/05/27 01:28:56;;;;;;;0.00;0.00;;;;;;;;;;5090829;28;20024;-84
2023/05/27 01:31:27;;;;;;;0.00;0.00;;;;;;;;;;5109353;28;20019;-86
2023/05/27 01:34:00;;;;;;;0.00;0.00;;;;;;;;;;5087436;28;20442;-86
2023/05/27 01:36:33;;;;;;;0.00;0.00;;;;;;;;;;5110931;28;20028;-87
2023/05/27 01:39:03;;;;;;;0.00;0.00;;;;;;;;;;5111135;28;20434;-86
2023/05/27 01:41:29;;;;;;;0.15;0.15;;;;;;;;;;5108727;28;20092;-86
2023/05/27 01:44:06;;;;;;;0.00;0.00;;;;;;;;;;5127350;28;20507;-85
2023/05/27 01:46:35;;;;;;;0.00;0.00;;;;;;;;;;5108977;28;20378;-85
2023/05/27 01:49:10;;;;;;;0.00;0.00;;;;;;;;;;5087013;28;20110;-83
2023/05/27 01:51:36;;;;;;;0.00;0.00;;;;;;;;;;5121582;27;20034;-86
2023/05/27 01:54:05;;;;;;;0.00;0.00;;;;;;;;;;5085448;28;20096;-86
2023/05/27 01:56:31;;;;;;;0.10;0.10;;;;;;;;;;5119691;27;20615;-86
2023/05/27 01:58:59;;;;;;;0.00;0.00;;;;;;;;;;5092931;28;20015;-86
2023/05/27 02:01:28;;;;;;;0.05;0.00;;;;;;;;;;5108619;28;20020;-85
2023/05/27 02:03:53;;;;;;;0.15;0.15;;;;;;;;;;5110408;28;20023;-85
2023/05/27 02:06:19;;;;;;;0.00;0.00;;;;;;;;;;5092804;28;20361;-86
2023/05/27 02:08:47;;;;;;;0.00;0.00;;;;;;;;;;5129995;27;20031;-85
2023/05/27 02:11:12;;;;;;;0.00;0.00;;;;;;;;;;5098608;28;20038;-84
2023/05/27 02:13:38;;;;;;;0.00;0.00;;;;;;;;;;5113752;28;20024;-84
2023/05/27 02:16:03;;;;;;;0.05;0.05;;;;;;;;;;5097187;28;20412;-84
2023/05/27 02:18:32;;;;;;;0.00;0.00;;;;;;;;;;5098940;28;20027;-85
2023/05/27 02:21:05;;;;;;;0.00;0.00;;;;;;;;;;5104343;28;20031;-87
2023/05/27 02:23:36;;;;;;;0.20;0.20;;;;;;;;;;5085318;28;20036;-85
2023/05/27 02:26:01;;;;;;;0.00;0.00;;;;;;;;;;5105578;28;20072;-86
2023/05/27 02:28:27;;;;;;;0.28;0.28;;;;;;;;;;5098963;28;20031;-85
2023/05/27 02:30:53;;;;;;;0.00;0.00;;;;;;;;;;5094284;28;20116;-87
2023/05/27 02:33:18;;;;;;;0.00;0.00;;;;;;;;;;5095915;28;20031;-85
2023/05/27 02:35:44;;;;;;;0.10;0.10;;;;;;;;;;5090115;28;20032;-86
2023/05/27 02:38:10;;;;;;;0.00;0.00;;;;;;;;;;5092731;28;20125;-85
2023/05/27 02:40:35;;;;;;;0.30;0.13;;;;;;;;;;5093729;28;20062;-85
2023/05/27 02:43:01;;;;;;;0.10;0.10;;;;;;;;;;5093625;28;20387;-86
2023/05/27 02:45:27;;;;;;;0.05;0.05;;;;;;;;;;5094369;28;20027;-87
2023/05/27 02:48:02;;;;;;;0.17;0.13;;;;;;;;;;5096626;28;20051;-86
2023/05/27 02:50:27;;;;;;;0.20;0.20;;;;;;;;;;5093720;28;20035;-91
2023/05/27 02:53:01;;;;;;;0.00;0.00;;;;;;;;;;5092970;28;20383;-88
2023/05/27 02:55:30;;;;;;;0.00;0.00;;;;;;;;;;5088032;28;20019;-87
2023/05/27 02:57:55;;;;;;;0.00;0.00;;;;;;;;;;5092629;28;20110;-87
2023/05/27 03:00:25;;;;;;;0.10;0.10;;;;;;;;;;5088610;28;20475;-85
2023/05/27 03:02:55;;;;;;;0.28;0.10;;;;;;;;;;5125826;27;20077;-86
2023/05/27 03:05:27;;;;;;;0.00;0.00;;;;;;;;;;5103265;28;20031;-84
2023/05/27 03:07:59;;;;;;;0.10;0.10;;;;;;;;;;5091692;28;20395;-86
2023/05/27 03:10:24;;;;;;;0.00;0.00;;;;;;;;;;5099308;28;20099;-87
2023/05/27 03:12:50;;;;;;;0.10;0.10;;;;;;;;;;5085555;28;20062;-87
2023/05/27 03:15:16;;;;;;;0.03;0.03;;;;;;;;;;5102855;28;20044;-86
2023/05/27 03:17:41;;;;;;;0.00;0.00;;;;;;;;;;5088117;28;20032;-87
2023/05/27 03:20:12;;;;;;;0.00;0.00;;;;;;;;;;5099123;28;20023;-86
2023/05/27 03:22:38;;;;;;;0.00;0.00;;;;;;;;;;5090235;28;20046;-86
2023/05/27 03:25:05;;;;;;;0.47;0.47;;;;;;;;;;5126152;27;20523;-85
2023/05/27 03:27:36;;;;;;;0.00;0.00;;;;;;;;;;5101649;28;20011;-86
2023/05/27 03:30:04;;;;;;;0.10;0.10;;;;;;;;;;5079380;28;20043;-87
2023/05/27 03:32:29;;;;;;;0.00;0.00;;;;;;;;;;5096223;28;20170;-84
2023/05/27 03:34:55;;;;;;;0.00;0.00;;;;;;;;;;5089982;28;20072;-85
2023/05/27 03:37:20;;;;;;;0.08;0.08;;;;;;;;;;5084476;28;20114;-85
2023/05/27 03:39:46;;;;;;;0.03;0.03;;;;;;;;;;5098899;28;20042;-85
2023/05/27 03:42:11;;;;;;;0.28;0.28;;;;;;;;;;5103646;28;20045;-85
2023/05/27 03:44:37;;;;;;;0.00;0.00;;;;;;;;;;5103492;28;20032;-84
2023/05/27 03:47:03;;;;;;;0.10;0.10;;;;;;;;;;5095795;28;20020;-86
2023/05/27 03:49:29;;;;;;;0.00;0.00;;;;;;;;;;5084529;28;20036;-87
2023/05/27 03:51:54;;;;;;;0.08;0.08;;;;;;;;;;5102709;28;20141;-87
2023/05/27 03:54:20;;;;;;;0.25;0.10;;;;;;;;;;5096065;28;20487;-86
2023/05/27 03:56:45;;;;;;;0.17;0.15;;;;;;;;;;5101945;28;20407;-87
2023/05/27 03:59:19;;;;;;;0.00;0.00;;;;;;;;;;5097584;28;20080;-85
2023/05/27 04:01:48;;;;;;;0.00;0.00;;;;;;;;;;5099087;28;20656;-87
2023/05/27 04:04:16;;;;;;;0.00;0.00;;;;;;;;;;5101519;28;20065;-86
2023/05/27 04:06:44;;;;;;;0.00;0.00;;;;;;;;;;5087395;28;20027;-88
2023/05/27 04:09:10;;;;;;;0.10;0.10;;;;;;;;;;5082281;28;20032;-87
2023/05/27 04:11:35;;;;;;;0.05;0.05;;;;;;;;;;5087845;28;20597;-87
2023/05/27 04:14:01;;;;;;;0.00;0.00;;;;;;;;;;5079740;28;20032;-87
2023/05/27 04:16:26;;;;;;;0.00;0.00;;;;;;;;;;5093135;28;20020;-86
2023/05/27 04:18:52;;;;;;;0.00;0.00;;;;;;;;;;5092691;28;20035;-84
2023/05/27 04:21:38;;;;;;;0.40;0.40;;;;;;;;;;5114305;27;20458;-84
2023/05/27 04:24:07;;;;;;;0.10;0.10;;;;;;;;;;5078935;28;20055;-85
2023/05/27 04:26:35;;;;;;;0.50;0.50;;;;;;;;;;5088645;28;20452;-85
2023/05/27 04:29:01;;;;;;;0.00;0.00;;;;;;;;;;5083991;28;20054;-86
2023/05/27 04:31:28;;;;;;;0.00;0.00;;;;;;;;;;5112544;27;20032;-84
2023/05/27 04:33:59;;;;;;;0.22;0.10;;;;;;;;;;5095272;28;20055;-84
2023/05/27 04:36:26;;;;;;;0.00;0.00;;;;;;;;;;5092091;28;20059;-83
2023/05/27 04:38:52;;;;;;;0.22;0.22;;;;;;;;;;5093857;28;20102;-83
2023/05/27 04:41:20;;;;;;;0.00;0.00;;;;;;;;;;5118134;27;20027;-85
2023/05/27 04:43:46;;;;;;;0.80;0.45;;;;;;;;;;5089297;28;20605;-86
2023/05/27 04:46:12;;;;;;;0.00;0.00;;;;;;;;;;5076929;28;20036;-88
2023/05/27 04:48:38;;;;;;;0.00;0.00;;;;;;;;;;5092869;28;20020;-85
2023/05/27 04:51:04;;;;;;;0.00;0.00;;;;;;;;;;5105879;28;20076;-86
2023/05/27 04:53:29;;;;;;;0.00;0.00;;;;;;;;;;5088667;28;20035;-87
2023/05/27 04:55:55;;;;;;;0.00;0.00;;;;;;;;;;5079215;28;20028;-87
2023/05/27 04:58:20;;;;;;;0.00;0.00;;;;;;;;;;5112888;27;20125;-86
2023/05/27 05:00:49;;;;;;;0.00;0.00;;;;;;;;;;5093120;28;20099;-85
2023/05/27 05:03:22;;;;;;;0.20;0.20;;;;;;;;;;5114743;27;20028;-86
2023/05/27 05:05:52;;;;;;;0.00;0.00;;;;;;;;;;5085775;28;20020;-85
2023/05/27 05:08:18;;;;;;;0.20;0.20;;;;;;;;;;5091710;28;20016;-83
2023/05/27 05:10:45;;;;;;;0.03;0.03;;;;;;;;;;5086117;28;20024;-84
2023/05/27 05:13:11;;;;;;;0.00;0.00;;;;;;;;;;5089484;28;20085;-86
2023/05/27 05:15:36;;;;;;;0.00;0.00;;;;;;;;;;5084826;28;20492;-85
2023/05/27 05:18:02;;;;;;;0.00;0.00;;;;;;;;;;5081578;28;20116;-84
2023/05/27 05:20:27;;;;;;;0.00;0.00;;;;;;;;;;5076383;28;20035;-84
2023/05/27 05:22:52;;;;;;;0.10;0.10;;;;;;;;;;5061461;28;20028;-83
2023/05/27 05:25:18;;;;;;;0.00;0.00;;;;;;;;;;5095953;28;20081;-85
2023/05/27 05:27:44;;;;;;;0.10;0.10;;;;;;;;;;5075809;28;20040;-85
2023/05/27 05:30:10;;;;;;;0.20;0.20;;;;;;;;;;5074089;28;20540;-85
2023/05/27 05:32:35;;;;;;;0.00;0.00;;;;;;;;;;5080303;28;20036;-84
2023/05/27 05:35:01;;;;;;;0.98;0.60;;;;;;;;;;5063231;28;20081;-85
2023/05/27 05:37:27;;;;;;;0.00;0.00;;;;;;;;;;5078202;28;20405;-85
2023/05/27 05:39:55;;;;;;;0.00;0.00;;;;;;;;;;5080605;28;20050;-87
2023/05/27 05:42:20;;;;;;;0.00;0.00;;;;;;;;;;5076210;28;20021;-87
2023/05/27 05:44:46;;;;;;;0.10;0.10;;;;;;;;;;5074841;28;20491;-86
2023/05/27 05:47:11;;;;;;;0.00;0.00;;;;;;;;;;5092413;28;20024;-88
2023/05/27 05:49:37;;;;;;;0.00;0.00;;;;;;;;;;5072212;28;20020;-85
2023/05/27 05:52:02;;;;;;;0.00;0.00;;;;;;;;;;5076646;28;20020;-84
2023/05/27 05:54:28;;;;;;;0.00;0.00;;;;;;;;;;5072507;28;20441;-86
2023/05/27 05:56:53;;;;;;;0.00;0.00;;;;;;;;;;5073178;28;20016;-85
2023/05/27 05:59:18;;;;;;;0.00;0.00;;;;;;;;;;5073139;28;20654;-83
2023/05/27 06:01:44;;;;;;;0.00;0.00;;;;;;;;;;5076473;28;20028;-85
2023/05/27 06:04:09;;;;;;;0.28;0.10;;;;;;;;;;5075507;28;20028;-85
2023/05/27 06:06:34;;;;;;;0.00;0.00;;;;;;;;;;5078867;28;20019;-85
2023/05/27 06:09:00;;;;;;;0.00;0.00;;;;;;;;;;5070533;28;20078;-87
2023/05/27 06:11:26;;;;;;;0.15;0.15;;;;;;;;;;5074847;28;20028;-85
2023/05/27 06:13:51;;;;;;;0.00;0.00;;;;;;;;;;5080414;28;20043;-84
2023/05/27 06:16:17;;;;;;;0.22;0.10;;;;;;;;;;5083343;28;20028;-85
2023/05/27 06:18:45;;;;;;;0.05;0.05;;;;;;;;;;5089394;28;20028;-86
2023/05/27 06:21:11;;;;;;;0.00;0.00;;;;;;;;;;5096943;28;20112;-85
2023/05/27 06:23:37;;;;;;;0.03;0.03;;;;;;;;;;5093025;28;20095;-84
2023/05/27 06:26:02;;;;;;;0.00;0.00;;;;;;;;;;5094173;28;20028;-84
2023/05/27 06:28:27;;;;;;;0.05;0.05;;;;;;;;;;5091932;28;20028;-84
2023/05/27 06:30:53;;;;;;;0.00;0.00;;;;;;;;;;5091312;28;20048;-85
2023/05/27 06:33:18;;;;;;;0.00;0.00;;;;;;;;;;5090280;28;20024;-84
2023/05/27 06:35:44;;;;;;;0.00;0.00;;;;;;;;;;5103658;28;20024;-84
2023/05/27 06:38:09;;;;;;;0.10;0.10;;;;;;;;;;5087030;28;20028;-84
2023/05/27 06:40:34;;;;;;;0.00;0.00;;;;;;;;;;5100744;28;20023;-84
2023/05/27 06:43:00;;;;;;;0.35;0.28;;;;;;;;;;5097448;28;20495;-84
2023/05/27 06:45:25;;;;;;;0.00;0.00;;;;;;;;;;5105957;28;20026;-83
2023/05/27 06:47:51;;;;;;;0.00;0.00;;;;;;;;;;5091536;28;20408;-87
2023/05/27 06:50:16;;;;;;;0.20;0.20;;;;;;;;;;5079505;28;20391;-85
2023/05/27 06:52:41;;;;;;;0.32;0.22;;;;;;;;;;5107173;28;20051;-86
2023/05/27 06:55:07;;;;;;;0.70;0.55;;;;;;;;;;5095042;28;20032;-85
2023/05/27 06:57:33;;;;;;;0.10;0.10;;;;;;;;;;5099892;28;20539;-84
2023/05/27 06:59:58;;;;;;;0.00;0.00;;;;;;;;;;5089546;28;20103;-84
2023/05/27 07:02:24;;;;;;;0.00;0.00;;;;;;;;;;5091674;28;20133;-84
2023/05/27 07:04:49;;;;;;;0.00;0.00;;;;;;;;;;5093542;28;20020;-83
2023/05/27 07:07:15;;;;;;;0.20;0.20;;;;;;;;;;5091231;28;20412;-83
2023/05/27 07:09:41;;;;;;;0.15;0.10;;;;;;;;;;5093015;28;20494;-82
2023/05/27 07:12:06;;;;;;;0.00;0.00;;;;;;;;;;5093505;28;20361;-82
2023/05/27 07:14:32;;;;;;;0.00;0.00;;;;;;;;;;5101244;28;20372;-82
2023/05/27 07:16:57;;;;;;;0.00;0.00;;;;;;;;;;5111365;28;20023;-82
2023/05/27 07:19:23;;;;;;;0.00;0.00;;;;;;;;;;5105919;28;20784;-82
2023/05/27 07:21:48;;;;;;;0.00;0.00;;;;;;;;;;5105804;28;20083;-82
2023/05/27 07:24:14;;;;;;;0.00;0.00;;;;;;;;;;5093085;28;20043;-83
2023/05/27 07:26:39;;;;;;;0.10;0.10;;;;;;;;;;5104149;28;20020;-83
2023/05/27 07:29:05;;;;;;;0.00;0.00;;;;;;;;;;5108510;28;20030;-82
2023/05/27 07:31:30;;;;;;;0.22;0.20;;;;;;;;;;5111680;28;20062;-82
2023/05/27 07:33:56;;;;;;;0.20;0.20;;;;;;;;;;5103149;28;20436;-82
2023/05/27 07:36:21;;;;;;;0.10;0.10;;;;;;;;;;5103327;28;20042;-82
2023/05/27 07:38:47;;;;;;;0.80;0.28;;;;;;;;;;5107879;28;20087;-82
2023/05/27 07:41:13;;;;;;;0.00;0.00;;;;;;;;;;5110405;28;20437;-83
2023/05/27 07:43:38;;;;;;;0.40;0.13;;;;;;;;;;5089978;28;20372;-83
2023/05/27 07:46:04;;;;;;;0.52;0.52;;;;;;;;;;5107770;28;20036;-82
2023/05/27 07:48:29;;;;;;;0.20;0.20;;;;;;;;;;5094568;28;20016;-82
2023/05/27 07:50:55;;;;;;;0.00;0.00;;;;;;;;;;5105751;28;20080;-82
2023/05/27 07:53:21;;;;;;;0.00;0.00;;;;;;;;;;5100729;28;20071;-83
2023/05/27 07:55:47;;;;;;;0.10;0.10;;;;;;;;;;5076151;28;20497;-83
2023/05/27 07:58:14;;;;;;;0.20;0.20;;;;;;;;;;5107446;28;20489;-83
2023/05/27 08:00:39;;;;;;;0.10;0.10;;;;;;;;;;5109622;28;20051;-83
2023/05/27 08:03:05;;;;;;;0.00;0.00;;;;;;;;;;5108703;28;20055;-84
2023/05/27 08:05:32;;;;;;;0.85;0.65;;;;;;;;;;5111806;28;20504;-83
2023/05/27 08:07:57;;;;;;;0.00;0.00;;;;;;;;;;5088560;28;20047;-83
2023/05/27 08:10:23;;;;;;;0.80;0.63;;;;;;;;;;5104780;28;20073;-82
2023/05/27 08:12:48;;;;;;;0.00;0.00;;;;;;;;;;5098548;28;20093;-83
2023/05/27 08:15:13;;;;;;;0.10;0.10;;;;;;;;;;5085535;28;20470;-84
2023/05/27 08:17:39;;;;;;;0.25;0.25;;;;;;;;;;5094392;28;20033;-82
2023/05/27 08:20:06;;;;;;;0.10;0.10;;;;;;;;;;5072190;28;20028;-82
2023/05/27 08:22:31;;;;;;;0.25;0.20;;;;;;;;;;5093719;28;20045;-82
2023/05/27 08:24:57;;;;;;;0.00;0.00;;;;;;;;;;5068232;28;20067;-84
2023/05/27 08:27:46;;;;;;;0.00;0.00;;;;;;;;;;5072316;28;20028;-83
2023/05/27 08:30:13;;;;;;;0.00;0.00;;;;;;;;;;5071878;28;20534;-83
2023/05/27 08:32:40;;;;;;;0.32;0.32;;;;;;;;;;5072018;28;20551;-82
2023/05/27 08:35:06;;;;;;;0.13;0.13;;;;;;;;;;5103407;28;20039;-82
2023/05/27 08:37:32;;;;;;;0.10;0.10;;;;;;;;;;5071190;28;20489;-86
2023/05/27 08:39:57;;;;;;;0.00;0.00;;;;;;;;;;5070591;28;20032;-83
2023/05/27 08:42:24;;;;;;;0.00;0.00;;;;;;;;;;5069560;28;20028;-86
2023/05/27 08:44:52;;;;;;;0.10;0.10;;;;;;;;;;5072521;28;20064;-86
2023/05/27 08:47:19;;;;;;;0.20;0.08;;;;;;;;;;5059043;28;20360;-84
2023/05/27 08:49:44;;;;;;;0.52;0.52;;;;;;;;;;5070515;28;20028;-85
2023/05/27 08:52:11;;;;;;;0.50;0.32;;;;;;;;;;5071882;28;20801;-85
2023/05/27 08:54:37;;;;;;;0.10;0.10;;;;;;;;;;5071525;28;20029;-84
2023/05/27 08:57:07;;;;;;;0.00;0.00;;;;;;;;;;5070840;28;20029;-82
2023/05/27 08:59:34;;;;;;;0.52;0.40;;;;;;;;;;5068727;28;20029;-83
2023/05/27 09:02:02;;;;;;;0.20;0.20;;;;;;;;;;5071134;28;20043;-84
2023/05/27 09:04:28;;;;;;;0.03;0.03;;;;;;;;;;5071490;28;20024;-85
2023/05/27 09:06:53;;;;;;;0.10;0.10;;;;;;;;;;5071869;28;20484;-84
2023/05/27 09:09:20;;;;;;;0.10;0.10;;;;;;;;;;5071424;28;20036;-85
2023/05/27 09:11:45;;;;;;;0.00;0.00;;;;;;;;;;5071634;28;20028;-85
2023/05/27 09:14:21;;;;;;;0.30;0.30;;;;;;;;;;5074078;28;20050;-84
2023/05/27 09:16:46;;;;;;;0.10;0.10;;;;;;;;;;5088896;28;20027;-85
2023/05/27 09:19:19;;;;;;;0.00;0.00;;;;;;;;;;5092770;28;20036;-84
2023/05/27 09:21:45;;;;;;;0.00;0.00;;;;;;;;;;5093316;28;20157;-82
2023/05/27 09:24:10;;;;;;;0.10;0.10;;;;;;;;;;5091569;28;20107;-83
2023/05/27 09:26:37;;;;;;;0.45;0.10;;;;;;;;;;5092592;28;20028;-85
2023/05/27 09:29:07;;;;;;;0.00;0.00;;;;;;;;;;5098534;28;20600;-84
2023/05/27 09:31:40;;;;;;;0.05;0.05;;;;;;;;;;5092215;28;20581;-83
2023/05/27 09:34:15;;;;;;;0.25;0.22;;;;;;;;;;5097571;28;20035;-84
2023/05/27 09:36:45;;;;;;;0.10;0.10;;;;;;;;;;5097270;28;20454;-83
2023/05/27 09:39:12;;;;;;;0.10;0.10;;;;;;;;;;5091555;28;20395;-84
2023/05/27 09:41:38;;;;;;;0.10;0.10;;;;;;;;;;5100147;28;20024;-84
2023/05/27 09:44:07;;;;;;;0.20;0.20;;;;;;;;;;5100713;28;20038;-84
2023/05/27 09:46:33;;;;;;;0.20;0.20;;;;;;;;;;5102616;28;20493;-85
2023/05/27 09:49:02;;;;;;;0.00;0.00;;;;;;;;;;5078992;28;20028;-83
2023/05/27 09:51:28;;;;;;;0.10;0.10;;;;;;;;;;5091740;28;20028;-84
2023/05/27 09:53:57;;;;;;;0.20;0.20;;;;;;;;;;5077081;28;20028;-84
2023/05/27 09:56:27;;;;;;;0.05;0.05;;;;;;;;;;5078957;28;20065;-84
2023/05/27 09:58:55;;;;;;;;;;;;;;;;;;5100886;28;20028;-83
2023/05/27 10:01:23;;;;;;;0.00;0.00;;;;;;;;;;5093714;28;19912;-84
2023/05/27 10:03:50;;;;;;;0.00;0.00;;;;;;;;;;5098666;28;20164;-85
2023/05/27 10:06:17;;;;;;;0.35;0.30;;;;;;;;;;5093525;28;20028;-83
2023/05/27 10:08:43;;;;;;;0.28;0.28;;;;;;;;;;5094091;28;20483;-85
2023/05/27 10:11:12;;;;;;;0.20;0.20;;;;;;;;;;5096594;28;20024;-83
2023/05/27 10:13:38;;;;;;;0.00;0.00;;;;;;;;;;5100051;28;20028;-83
2023/05/27 10:16:03;;;;;;;0.45;0.30;;;;;;;;;;5096242;28;20044;-84
2023/05/27 10:18:30;;;;;;;0.10;0.10;;;;;;;;;;5102660;28;20054;-85
2023/05/27 10:20:59;;;;;;;0.00;0.00;;;;;;;;;;5095152;28;20055;-82
2023/05/27 10:23:27;;;;;;;0.20;0.20;;;;;;;;;;5098827;28;20024;-84
2023/05/27 10:26:00;;;;;;;0.35;0.30;;;;;;;;;;5091113;28;20031;-83
2023/05/27 10:28:28;;;;;;;0.17;0.17;;;;;;;;;;5091948;28;20092;-85
2023/05/27 10:31:03;;;;;;;0.47;0.47;;;;;;;;;;5104086;28;20474;-83
2023/05/27 10:33:36;;;;;;;0.25;0.20;;;;;;;;;;5101671;28;20091;-84
2023/05/27 10:36:10;;;;;;;0.28;0.28;;;;;;;;;;5092801;28;20125;-83
2023/05/27 10:38:36;;;;;;;0.57;0.25;;;;;;;;;;5093037;28;20030;-80
2023/05/27 10:41:03;;;;;;;0.15;0.15;;;;;;;;;;5095361;28;20032;-85
2023/05/27 10:43:30;;;;;;;0.30;0.30;;;;;;;;;;5093304;28;20054;-83
2023/05/27 10:46:03;;;;;;;0.30;0.30;;;;;;;;;;5095853;28;20027;-83
2023/05/27 10:48:28;;;;;;;2.45;0.15;;;;;;;;;;5100531;28;20375;-83
2023/05/27 10:50:57;;;;;;;0.28;0.28;;;;;;;;;;5094452;28;20023;-84
2023/05/27 10:53:26;;;;;;;0.65;0.45;;;;;;;;;;5096282;28;20081;-85
2023/05/27 10:55:51;;;;;;;0.00;0.00;;;;;;;;;;5098271;28;20101;-85
2023/05/27 10:58:17;;;;;;;0.35;0.32;;;;;;;;;;5101483;28;20023;-86
2023/05/27 11:00:46;;;;;;;0.20;0.20;;;;;;;;;;5088289;28;20467;-85
2023/05/27 11:03:22;;;;;;;0.20;0.20;;;;;;;;;;5099499;28;20020;-85
2023/05/27 11:06:01;;;;;;;0.08;0.08;;;;;;;;;;5101515;28;20474;-85
2023/05/27 11:08:27;;;;;;;0.10;0.10;;;;;;;;;;5100080;28;20027;-84
2023/05/27 11:11:05;;;;;;;0.32;0.32;;;;;;;;;;5101480;28;20047;-84
2023/05/27 11:13:45;;;;;;;0.35;0.35;;;;;;;;;;5105551;28;20027;-84
2023/05/27 11:16:12;;;;;;;0.00;0.00;;;;;;;;;;5109088;28;20114;-85
2023/05/27 11:18:43;;;;;;;0.00;0.00;;;;;;;;;;5110242;28;20031;-84
2023/05/27 11:21:10;;;;;;;0.40;0.40;;;;;;;;;;5107939;28;20564;-83
2023/05/27 11:23:39;;;;;;;0.40;0.40;;;;;;;;;;5090849;28;20028;-82
2023/05/27 11:26:10;;;;;;;0.08;0.08;;;;;;;;;;5107257;28;20027;-83
2023/05/27 11:28:35;;;;;;;0.45;0.20;;;;;;;;;;5103162;28;20488;-85
2023/05/27 11:31:04;;;;;;;0.32;0.32;;;;;;;;;;5108297;28;20059;-84
2023/05/27 11:33:33;;;;;;;1.13;0.37;;;;;;;;;;5111888;28;20030;-85
2023/05/27 11:36:11;;;;;;;0.40;0.40;;;;;;;;;;5112512;28;20031;-84
2023/05/27 11:38:54;;;;;;;0.13;0.13;;;;;;;;;;5108920;28;20035;-83
2023/05/27 11:41:29;;;;;;;0.00;0.00;;;;;;;;;;5093683;28;20095;-82
2023/05/27 11:44:04;;;;;;;0.20;0.20;;;;;;;;;;5107956;28;20023;-83
2023/05/27 11:46:37;;;;;;;0.45;0.43;;;;;;;;;;5122575;27;20035;-84
2023/05/27 11:49:08;;;;;;;0.60;0.60;;;;;;;;;;5102063;28;20049;-84
2023/05/27 11:51:36;;;;;;;0.20;0.20;;;;;;;;;;5106032;28;20035;-84
2023/05/27 11:54:01;;;;;;;0.60;0.60;;;;;;;;;;5104512;28;20055;-84
2023/05/27 11:56:28;;;;;;;0.22;0.22;;;;;;;;;;5103146;28;20052;-84
2023/05/27 11:58:55;;;;;;;0.10;0.10;;;;;;;;;;5110098;28;20019;-86
2023/05/27 12:01:20;;;;;;;0.38;0.38;;;;;;;;;;5105021;28;20024;-82
2023/05/27 12:03:46;;;;;;;0.00;0.00;;;;;;;;;;5099498;28;20015;-86
2023/05/27 12:06:11;;;;;;;0.20;0.20;;;;;;;;;;5107751;28;20023;-86
2023/05/27 12:08:38;;;;;;;0.30;0.30;;;;;;;;;;5108346;28;20035;-83
2023/05/27 12:11:04;;;;;;;0.00;0.00;;;;;;;;;;5107408;28;20544;-82
2023/05/27 12:13:30;;;;;;;0.20;0.20;;;;;;;;;;5110788;28;20031;-84
2023/05/27 12:15:56;;;;;;;0.10;0.10;;;;;;;;;;5105145;28;20044;-83
2023/05/27 12:18:21;;;;;;;0.40;0.40;;;;;;;;;;5104336;28;20035;-84
2023/05/27 12:20:47;;;;;;;0.10;0.10;;;;;;;;;;5101989;28;20031;-84
2023/05/27 12:23:12;;;;;;;0.22;0.22;;;;;;;;;;5108587;28;20063;-84
2023/05/27 12:25:38;;;;;;;0.25;0.25;;;;;;;;;;5098116;28;20458;-85
2023/05/27 12:28:03;;;;;;;0.10;0.10;;;;;;;;;;5102797;28;20030;-84
2023/05/27 12:30:29;;;;;;;0.00;0.00;;;;;;;;;;5102698;28;20048;-84
2023/05/27 12:32:55;;;;;;;0.22;0.22;;;;;;;;;;5107313;28;20031;-82
2023/05/27 12:35:20;;;;;;;0.20;0.20;;;;;;;;;;5091624;28;20027;-83
2023/05/27 12:37:46;;;;;;;0.52;0.43;;;;;;;;;;5109487;28;20031;-84
2023/05/27 12:40:14;;;;;;;0.20;0.20;;;;;;;;;;5104125;28;20024;-83
2023/05/27 12:42:40;;;;;;;0.35;0.35;;;;;;;;;;5093499;28;20386;-82
2023/05/27 12:45:07;;;;;;;0.30;0.30;;;;;;;;;;5106422;28;20600;-83
2023/05/27 12:47:32;;;;;;;0.15;0.15;;;;;;;;;;5107244;28;20031;-83
2023/05/27 12:49:58;;;;;;;0.55;0.55;;;;;;;;;;5110077;27;20110;-84
2023/05/27 12:52:23;;;;;;;0.28;0.28;;;;;;;;;;5101288;28;20057;-83
2023/05/27 12:54:48;;;;;;;0.08;0.08;;;;;;;;;;5103055;28;20030;-84
2023/05/27 12:57:14;;;;;;;0.32;0.30;;;;;;;;;;5100603;28;20028;-83
2023/05/27 12:59:41;;;;;;;0.10;0.10;;;;;;;;;;5101709;28;20468;-84
2023/05/27 13:02:07;;;;;;;0.15;0.15;;;;;;;;;;5105871;28;20367;-83
2023/05/27 13:04:33;;;;;;;0.63;0.63;;;;;;;;;;5095049;28;20111;-84
2023/05/27 13:06:58;;;;;;;0.15;0.15;;;;;;;;;;5087572;28;20041;-83
2023/05/27 13:09:24;;;;;;;1.55;0.52;;;;;;;;;;5121910;27;20032;-83
2023/05/27 13:11:49;;;;;;;0.63;0.40;;;;;;;;;;5109058;28;20023;-83
2023/05/27 13:14:15;;;;;;;0.28;0.28;;;;;;;;;;5108967;28;20048;-83
2023/05/27 13:16:41;;;;;;;0.28;0.28;;;;;;;;;;5108823;28;20081;-82
2023/05/27 13:19:07;;;;;;;0.63;0.43;;;;;;;;;;5098625;28;20020;-83
2023/05/27 13:21:33;;;;;;;0.10;0.10;;;;;;;;;;5093329;28;20051;-83
2023/05/27 13:23:58;;;;;;;0.30;0.30;;;;;;;;;;5074086;28;20475;-84
2023/05/27 13:26:24;;;;;;;0.30;0.30;;;;;;;;;;5093277;28;20569;-86
2023/05/27 13:28:49;;;;;;;0.10;0.10;;;;;;;;;;5096698;28;20027;-84
2023/05/27 13:31:15;;;;;;;0.32;0.32;;;;;;;;;;5085295;28;20062;-82
2023/05/27 13:33:41;;;;;;;0.10;0.10;;;;;;;;;;5087065;28;20036;-87
2023/05/27 13:36:07;;;;;;;0.45;0.38;;;;;;;;;;5090003;28;20385;-85
2023/05/27 13:38:35;;;;;;;0.20;0.20;;;;;;;;;;5104426;28;20043;-84
2023/05/27 13:41:01;;;;;;;0.63;0.63;;;;;;;;;;5108967;28;20119;-87
2023/05/27 13:43:27;;;;;;;0.32;0.25;;;;;;;;;;5095097;28;20024;-85
2023/05/27 13:45:53;;;;;;;0.20;0.20;;;;;;;;;;5093624;28;20092;-89
2023/05/27 13:48:18;;;;;;;0.52;0.52;;;;;;;;;;5109461;28;20399;-89
2023/05/27 13:50:44;;;;;;;0.40;0.40;;;;;;;;;;5095661;28;20024;-85
2023/05/27 13:53:09;;;;;;;0.40;0.40;;;;;;;;;;5102309;28;20131;-84
2023/05/27 13:55:35;;;;;;;0.35;0.35;;;;;;;;;;5108693;28;20024;-86
2023/05/27 13:58:00;;;;;;;0.40;0.40;;;;;;;;;;5106054;28;20052;-88
2023/05/27 14:00:26;;;;;;;0.40;0.35;;;;;;;;;;5090831;28;20055;-88
2023/05/27 14:02:53;;;;;;;0.35;0.30;;;;;;;;;;5096955;28;20067;-85
2023/05/27 14:05:19;;;;;;;0.20;0.20;;;;;;;;;;5105891;28;20024;-85
2023/05/27 14:07:46;;;;;;;0.20;0.20;;;;;;;;;;5108476;28;20049;-87
2023/05/27 14:10:12;;;;;;;0.73;0.57;;;;;;;;;;5099366;28;20058;-83
2023/05/27 14:12:38;;;;;;;0.30;0.30;;;;;;;;;;5096453;28;20036;-87
2023/05/27 14:15:04;;;;;;;0.38;0.38;;;;;;;;;;5103780;28;20154;-87
2023/05/27 14:17:30;;;;;;;0.30;0.30;;;;;;;;;;5097926;28;20024;-88
2023/05/27 14:19:56;;;;;;;0.40;0.40;;;;;;;;;;5109656;28;20440;-87
2023/05/27 14:22:22;;;;;;;0.43;0.43;;;;;;;;;;5109975;28;20024;-86
2023/05/27 14:24:48;;;;;;;0.20;0.20;;;;;;;;;;5097660;28;20032;-86
2023/05/27 14:27:13;;;;;;;0.10;0.10;;;;;;;;;;5081267;28;20040;-86
2023/05/27 14:29:39;;;;;;;0.40;0.40;;;;;;;;;;5097536;28;20024;-87
2023/05/27 14:32:05;;;;;;;0.40;0.40;;;;;;;;;;5103161;28;20028;-86
2023/05/27 14:34:31;;;;;;;0.17;0.17;;;;;;;;;;5103531;28;20028;-87
2023/05/27 14:36:56;;;;;;;0.32;0.32;;;;;;;;;;5104592;28;20077;-86
2023/05/27 14:39:21;;;;;;;0.50;0.50;;;;;;;;;;5110178;28;20423;-87
2023/05/27 14:41:47;;;;;;;0.75;0.63;;;;;;;;;;5098620;28;20028;-88
2023/05/27 14:44:12;;;;;;;0.98;0.30;;;;;;;;;;5097986;28;20032;-86